You are not logged in, Click here to log in
ICAO: LPMA Country: 葡萄牙馬德拉聖克魯斯聖卡塔琳娜堂區
Latitude: 32.6958 Longitude: -16.7759
Total Arrivals: 12 Total Departures: 6
Latest Arrival: TP1679 (LPPT-LPMA)Arthur. Kung Latest Departure: TP1710 (LPMA-LPPR)Arthur. Kung
Scenery:
METAR : LPMA 210730Z 02013KT 340V040 9999 FEW015 22/16 Q1020

馬德拉機場FNC